Time;durP1;ratioP1;P1;durP2;ratioP2;P2;SDS_P1;SDS_P2;PMS_P1;PMS_P2;Temp;Humidity;BMP_temperature;BMP_pressure;BME280_temperature;BME280_humidity;BME280_pressure;Samples;Min_cycle;Max_cycle;Signal;HPM_P1;HPM_P2
2023/03/13 00:01:11;;;;;;;13.98;3.60;;;;;;;10.18;66.63;100243.13;5123941;28;20050;-62
2023/03/13 00:03:39;;;;;;;10.30;3.58;;;;;;;10.17;66.58;100229.94;5122549;28;20488;-62
2023/03/13 00:06:07;;;;;;;16.65;4.05;;;;;;;10.16;66.39;100229.13;5120983;28;20043;-62
2023/03/13 00:08:35;;;;;;;12.55;2.88;;;;;;;10.16;66.38;100222.94;5121849;28;20086;-63
2023/03/13 00:11:03;;;;;;;14.07;3.97;;;;;;;10.09;66.35;100205.09;5133286;27;20086;-63
2023/03/13 00:13:31;;;;;;;13.85;3.33;;;;;;;10.17;66.70;100219.22;5118923;28;20433;-62
2023/03/13 00:16:06;;;;;;;10.25;2.72;;;;;;;10.13;66.58;100202.75;5121889;27;20111;-63
2023/03/13 00:18:34;;;;;;;11.85;3.55;;;;;;;10.15;66.43;100203.34;5119958;28;20058;-63
2023/03/13 00:21:03;;;;;;;9.55;2.50;;;;;;;10.17;66.91;100195.03;5112411;28;20059;-63
2023/03/13 00:23:33;;;;;;;19.55;4.78;;;;;;;10.17;67.43;100192.34;5114308;28;20452;-62
2023/03/13 00:26:03;;;;;;;11.55;3.58;;;;;;;10.15;67.24;100176.47;5117691;28;20042;-63
2023/03/13 00:28:33;;;;;;;13.68;3.72;;;;;;;10.15;66.75;100175.66;5118349;28;20047;-61
2023/03/13 00:31:03;;;;;;;11.05;3.58;;;;;;;10.15;66.93;100176.47;5120687;28;20486;-62
2023/03/13 00:33:32;;;;;;;13.73;3.97;;;;;;;10.14;67.19;100164.09;5108597;28;20052;-62
2023/03/13 00:36:01;;;;;;;14.32;3.40;;;;;;;10.14;67.42;100157.91;5109992;28;20074;-62
2023/03/13 00:38:29;;;;;;;12.30;3.20;;;;;;;10.13;67.47;100153.59;5121104;28;20173;-62
2023/03/13 00:41:01;;;;;;;8.77;2.38;;;;;;;10.13;67.82;100149.06;5119570;28;20051;-62
2023/03/13 00:43:29;;;;;;;10.57;2.63;;;;;;;10.13;68.08;100146.38;5112709;28;20196;-62
2023/03/13 00:45:57;;;;;;;13.10;2.72;;;;;;;10.12;68.08;100139.38;5106954;28;20082;-61
2023/03/13 00:48:27;;;;;;;21.10;3.88;;;;;;;10.09;67.72;100127.22;5110942;28;20047;-61
2023/03/13 00:50:55;;;;;;;12.25;3.22;;;;;;;10.11;68.52;100125.13;5118121;28;20153;-61
2023/03/13 00:53:23;;;;;;;13.48;2.72;;;;;;;10.09;67.99;100116.50;5119658;28;20043;-62
2023/03/13 00:55:53;;;;;;;11.57;3.17;;;;;;;10.10;68.15;100120.00;5119186;28;20078;-62
2023/03/13 00:58:22;;;;;;;14.05;3.45;;;;;;;10.12;68.75;100112.50;5122088;28;20047;-62
2023/03/13 01:00:50;;;;;;;13.45;3.47;;;;;;;10.10;68.84;100103.88;5118930;28;20075;-63
2023/03/13 01:03:18;;;;;;;15.23;3.13;;;;;;;10.03;69.39;100092.44;5109729;28;20080;-62
2023/03/13 01:05:55;;;;;;;12.80;3.30;;;;;;;10.09;68.46;100086.94;5117853;28;20166;-63
2023/03/13 01:08:23;;;;;;;8.75;2.75;;;;;;;10.06;68.41;100084.75;5115091;28;20048;-63
2023/03/13 01:10:51;;;;;;;11.10;2.90;;;;;;;10.07;68.96;100081.00;5114819;28;20131;-63
2023/03/13 01:13:18;;;;;;;15.38;3.28;;;;;;;10.08;69.48;100082.63;5117022;28;20044;-61
2023/03/13 01:15:46;;;;;;;13.48;3.75;;;;;;;10.09;69.16;100075.41;5114673;28;20241;-63
2023/03/13 01:18:14;;;;;;;13.73;4.72;;;;;;;10.10;69.51;100068.97;5114893;28;20112;-63
2023/03/13 01:20:42;;;;;;;16.30;3.75;;;;;;;10.10;69.62;100069.78;5116018;28;20054;-61
2023/03/13 01:23:11;;;;;;;10.95;3.67;;;;;;;10.10;69.77;100058.22;5119512;28;20378;-61
2023/03/13 01:25:39;;;;;;;15.57;3.53;;;;;;;10.09;69.60;100052.06;5120498;28;20078;-61
2023/03/13 01:28:07;;;;;;;9.38;2.97;;;;;;;10.10;69.39;100055.56;5112484;28;20047;-61
2023/03/13 01:30:35;;;;;;;11.50;3.38;;;;;;;10.10;69.21;100044.81;5114653;28;20035;-63
2023/03/13 01:33:02;;;;;;;12.35;3.38;;;;;;;10.10;69.46;100028.69;5112229;28;20054;-62
2023/03/13 01:35:30;;;;;;;9.40;3.15;;;;;;;10.13;69.13;100024.72;5110891;28;20140;-62
2023/03/13 01:37:58;;;;;;;13.13;3.85;;;;;;;10.14;70.10;100012.94;5120455;28;20053;-62
2023/03/13 01:40:27;;;;;;;11.73;2.65;;;;;;;10.14;70.10;100018.31;5116315;28;20448;-62
2023/03/13 01:42:57;;;;;;;15.73;3.00;;;;;;;10.13;69.78;100020.16;5110071;28;20086;-62
2023/03/13 01:45:56;;;;;;;10.73;3.05;;;;;;;10.13;69.62;100014.81;5118602;28;20088;-62
2023/03/13 01:48:31;;;;;;;9.90;2.60;;;;;;;10.15;70.02;100009.19;5113168;28;20113;-62
2023/03/13 01:51:01;;;;;;;9.25;2.58;;;;;;;10.14;69.67;100007.56;5118358;28;20087;-62
2023/03/13 01:53:33;;;;;;;11.40;3.00;;;;;;;10.16;69.83;100005.44;5122734;28;20043;-62
2023/03/13 01:56:08;;;;;;;10.05;2.85;;;;;;;10.15;69.94;100007.31;5115374;28;20074;-62
2023/03/13 01:58:37;;;;;;;8.18;2.33;;;;;;;10.16;70.07;100000.09;5121116;28;20075;-62
2023/03/13 02:01:05;;;;;;;6.22;2.33;;;;;;;10.16;69.97;99981.28;5118157;28;20130;-62
2023/03/13 02:03:37;;;;;;;6.05;2.60;;;;;;;10.17;70.17;99974.88;5125067;28;20043;-62
2023/03/13 02:06:07;;;;;;;8.68;2.33;;;;;;;10.16;70.08;99974.03;5121030;28;20489;-63
2023/03/13 02:08:40;;;;;;;9.77;2.80;;;;;;;10.17;69.81;99966.81;5120750;28;20119;-62
2023/03/13 02:11:21;;;;;;;12.27;2.60;;;;;;;10.17;70.26;99959.56;5118771;28;20048;-62
2023/03/13 02:13:50;;;;;;;8.10;2.47;;;;;;;10.17;70.21;99950.69;5109926;28;20067;-62
2023/03/13 02:16:20;;;;;;;7.75;2.10;;;;;;;10.17;70.21;99939.97;5116803;27;20063;-62
2023/03/13 02:18:49;;;;;;;7.60;3.15;;;;;;;10.19;69.86;99929.78;5121462;28;20044;-62
2023/03/13 02:21:28;;;;;;;9.10;2.42;;;;;;;10.19;70.11;99930.59;5113260;28;20052;-62
2023/03/13 02:24:01;;;;;;;3.65;2.08;;;;;;;10.18;70.24;99912.88;5122162;28;20038;-63
2023/03/13 02:26:30;;;;;;;6.05;2.17;;;;;;;10.20;70.40;99893.84;5116973;28;20139;-63
2023/03/13 02:28:58;;;;;;;6.65;2.08;;;;;;;10.20;70.53;99899.22;5124196;28;20047;-62
2023/03/13 02:31:26;;;;;;;5.82;2.00;;;;;;;10.22;70.29;99894.44;5120097;28;20067;-62
2023/03/13 02:33:55;;;;;;;6.82;1.85;;;;;;;10.21;70.34;99896.31;5105618;27;20044;-63
2023/03/13 02:36:23;;;;;;;6.22;2.05;;;;;;;10.21;70.72;99900.84;5112686;28;20404;-62
2023/03/13 02:38:56;;;;;;;9.30;2.30;;;;;;;10.20;70.61;99907.28;5124669;28;20051;-62
2023/03/13 02:41:25;;;;;;;8.15;2.28;;;;;;;10.20;70.53;99891.19;5119510;28;20131;-62
2023/03/13 02:43:54;;;;;;;7.57;3.03;;;;;;;10.21;70.66;99892.81;5121686;28;20120;-62
2023/03/13 02:46:22;;;;;;;7.55;2.13;;;;;;;10.20;70.54;99892.00;5114713;28;20040;-63
2023/03/13 02:48:52;;;;;;;6.15;1.38;;;;;;;10.23;70.78;99888.00;5111698;28;20075;-62
2023/03/13 02:51:25;;;;;;;4.38;1.70;;;;;;;10.21;71.01;99887.44;5111464;28;20062;-62
2023/03/13 02:53:56;;;;;;;7.10;2.05;;;;;;;10.22;71.00;99881.81;5117546;28;20090;-63
2023/03/13 02:56:26;;;;;;;6.20;1.85;;;;;;;10.23;71.13;99870.03;5123462;28;20103;-62
2023/03/13 02:58:56;;;;;;;4.75;1.83;;;;;;;10.24;70.84;99881.59;5123021;28;20083;-63
2023/03/13 03:01:23;;;;;;;6.38;1.92;;;;;;;10.23;71.01;99883.44;5117921;28;20044;-63
2023/03/13 03:03:51;;;;;;;5.25;1.63;;;;;;;10.26;71.31;99879.47;5114734;28;20138;-62
2023/03/13 03:06:19;;;;;;;7.95;2.78;;;;;;;10.26;70.93;99882.97;5106534;28;20082;-62
2023/03/13 03:08:47;;;;;;;3.78;1.50;;;;;;;10.26;71.08;99899.06;5121398;27;20048;-63
2023/03/13 03:11:15;;;;;;;5.90;2.15;;;;;;;10.25;71.36;99884.03;5123289;28;20268;-63
2023/03/13 03:13:42;;;;;;;7.15;1.92;;;;;;;10.26;71.31;99887.53;5123752;28;20067;-62
2023/03/13 03:16:17;;;;;;;5.85;2.05;;;;;;;10.27;71.55;99898.03;5117653;28;20560;-62
2023/03/13 03:18:45;;;;;;;2.72;1.40;;;;;;;10.28;71.26;99891.59;5120875;28;20054;-62
2023/03/13 03:21:13;;;;;;;3.75;1.85;;;;;;;10.30;71.34;99880.59;5116544;28;20086;-62
2023/03/13 03:23:40;;;;;;;4.07;2.13;;;;;;;10.30;71.28;99888.66;5113328;28;20127;-62
2023/03/13 03:26:08;;;;;;;6.68;1.70;;;;;;;10.30;71.36;99883.28;5124576;28;20079;-62
2023/03/13 03:28:36;;;;;;;4.60;1.77;;;;;;;10.30;71.67;99894.84;5119407;28;20119;-62
2023/03/13 03:31:04;;;;;;;4.88;1.80;;;;;;;10.30;71.98;99883.28;5123461;28;20090;-62
2023/03/13 03:33:33;;;;;;;3.45;1.80;;;;;;;10.30;71.85;99891.34;5120629;28;20122;-62
2023/03/13 03:36:03;;;;;;;5.55;2.50;;;;;;;10.29;72.04;99866.38;5117539;28;20054;-62
2023/03/13 03:38:31;;;;;;;3.30;1.50;;;;;;;10.31;71.90;99871.50;5116398;28;20441;-62
2023/03/13 03:40:58;;;;;;;4.57;1.63;;;;;;;10.31;71.65;99861.56;5110785;27;20124;-62
2023/03/13 03:43:26;;;;;;;5.78;2.03;;;;;;;10.32;71.65;99868.56;5118796;28;20103;-62
2023/03/13 03:45:54;;;;;;;5.32;1.83;;;;;;;10.33;71.88;99867.50;5118985;28;20491;-62
2023/03/13 03:48:22;;;;;;;3.88;1.98;;;;;;;10.34;71.88;99865.63;5122103;28;20052;-62
2023/03/13 03:50:51;;;;;;;4.18;1.60;;;;;;;10.36;71.68;99860.84;5119657;28;20074;-62
2023/03/13 03:53:18;;;;;;;3.55;1.80;;;;;;;10.37;72.00;99865.16;5113356;27;20115;-63
2023/03/13 03:55:46;;;;;;;3.60;1.65;;;;;;;10.36;72.03;99868.88;5120471;28;20159;-62
2023/03/13 03:58:14;;;;;;;1.75;1.25;;;;;;;10.37;72.10;99875.88;5114423;28;20163;-62
2023/03/13 04:00:44;;;;;;;3.33;1.30;;;;;;;10.38;72.26;99864.91;5123908;28;20537;-62
2023/03/13 04:03:12;;;;;;;3.40;1.73;;;;;;;10.39;72.09;99873.78;5117485;28;20043;-62
2023/03/13 04:05:40;;;;;;;5.28;1.60;;;;;;;10.39;72.06;99858.47;5108237;28;20413;-62
2023/03/13 04:08:10;;;;;;;4.45;1.75;;;;;;;10.41;72.04;99856.31;5117491;28;20144;-62
2023/03/13 04:10:37;;;;;;;4.05;1.90;;;;;;;10.42;72.14;99860.63;5118212;28;20068;-63
2023/03/13 04:13:05;;;;;;;3.25;1.58;;;;;;;10.42;72.23;99847.22;5115836;28;20071;-62
2023/03/13 04:15:33;;;;;;;7.45;2.40;;;;;;;10.42;71.92;99851.75;5123874;28;20062;-62
2023/03/13 04:18:01;;;;;;;4.18;1.70;;;;;;;10.43;72.04;99853.38;5120585;28;20075;-62
2023/03/13 04:20:29;;;;;;;3.55;1.73;;;;;;;10.44;72.37;99842.41;5122113;28;20047;-62
2023/03/13 04:22:56;;;;;;;3.75;1.70;;;;;;;10.44;72.38;99837.03;5122878;28;20058;-62
2023/03/13 04:25:26;;;;;;;2.20;1.50;;;;;;;10.45;72.91;99832.47;5120802;28;20062;-62
2023/03/13 04:27:54;;;;;;;2.63;1.52;;;;;;;10.46;72.37;99835.97;5123435;28;20043;-62
2023/03/13 04:30:22;;;;;;;3.00;1.75;;;;;;;10.47;72.51;99834.91;5120486;28;20446;-62
2023/03/13 04:32:50;;;;;;;4.40;1.60;;;;;;;10.46;72.34;99815.28;5118169;28;20056;-62
2023/03/13 04:35:18;;;;;;;2.95;1.70;;;;;;;10.47;72.68;99805.38;5117360;28;20048;-62
2023/03/13 04:37:46;;;;;;;3.92;1.80;;;;;;;10.48;72.47;99807.00;5115605;28;20071;-62
2023/03/13 04:40:14;;;;;;;3.22;1.50;;;;;;;10.47;72.63;99798.13;5113533;28;20126;-62
2023/03/13 04:42:43;;;;;;;5.72;2.13;;;;;;;10.47;72.62;99803.50;5121608;28;20099;-62
2023/03/13 04:45:11;;;;;;;3.25;1.55;;;;;;;10.47;72.45;99784.69;5122792;28;20048;-63
2023/03/13 04:47:39;;;;;;;3.33;1.85;;;;;;;10.48;72.70;99788.19;5115788;28;20549;-63
2023/03/13 04:50:08;;;;;;;5.55;2.08;;;;;;;10.48;72.53;99785.50;5110187;28;20101;-62
2023/03/13 04:52:36;;;;;;;3.33;1.63;;;;;;;10.49;72.45;99790.63;5116341;28;20087;-63
2023/03/13 04:55:04;;;;;;;3.30;1.50;;;;;;;10.51;72.55;99795.75;5115282;28;20509;-62
2023/03/13 04:57:31;;;;;;;5.15;1.50;;;;;;;10.51;72.48;99787.69;5116542;28;20048;-62
2023/03/13 05:00:00;;;;;;;5.03;1.70;;;;;;;10.51;72.69;99790.38;5119423;28;20139;-62
2023/03/13 05:02:28;;;;;;;2.53;1.60;;;;;;;10.50;72.66;99803.00;5119714;28;20499;-62
2023/03/13 05:04:56;;;;;;;4.65;1.48;;;;;;;10.50;72.42;99794.13;5119114;28;20043;-62
2023/03/13 05:07:24;;;;;;;2.55;1.60;;;;;;;10.51;72.86;99782.31;5115658;28;20065;-62
2023/03/13 05:09:51;;;;;;;2.30;1.75;;;;;;;10.57;72.45;99776.78;5105664;28;20087;-62
2023/03/13 05:12:19;;;;;;;3.33;1.50;;;;;;;10.55;72.45;99781.56;5120625;28;20048;-62
2023/03/13 05:14:49;;;;;;;6.50;2.38;;;;;;;10.54;72.47;99777.25;5122406;28;20127;-63
2023/03/13 05:17:18;;;;;;;4.72;1.80;;;;;;;10.55;72.64;99784.25;5116092;28;20040;-62
2023/03/13 05:19:45;;;;;;;5.43;1.83;;;;;;;10.60;72.61;99770.91;5121236;28;20047;-62
2023/03/13 05:22:13;;;;;;;2.00;1.52;;;;;;;10.58;72.60;99769.53;5118771;28;20052;-63
2023/03/13 05:24:41;;;;;;;3.28;1.70;;;;;;;10.59;72.64;99765.78;5120897;28;20363;-62
2023/03/13 05:27:09;;;;;;;6.00;2.33;;;;;;;10.59;72.65;99757.72;5122586;28;20055;-62
2023/03/13 05:29:36;;;;;;;4.32;1.85;;;;;;;10.58;72.94;99751.53;5116809;28;20065;-62
2023/03/13 05:32:04;;;;;;;4.75;1.50;;;;;;;10.59;72.92;99750.47;5121213;28;20403;-62
2023/03/13 05:34:33;;;;;;;4.63;1.67;;;;;;;10.62;72.85;99765.28;5114128;28;20063;-63
2023/03/13 05:37:01;;;;;;;4.32;1.70;;;;;;;10.63;72.87;99751.59;5114426;28;20109;-62
2023/03/13 05:39:29;;;;;;;3.92;1.77;;;;;;;10.65;72.85;99764.78;5114533;27;20044;-62
2023/03/13 05:41:57;;;;;;;6.35;2.33;;;;;;;10.68;72.64;99761.59;5114219;28;20112;-62
2023/03/13 05:44:24;;;;;;;3.80;1.60;;;;;;;10.66;72.71;99756.47;5124706;28;20050;-63
2023/03/13 05:46:52;;;;;;;4.32;1.98;;;;;;;10.70;72.79;99746.84;5120576;28;20047;-62
2023/03/13 05:49:20;;;;;;;5.53;1.98;;;;;;;10.69;72.89;99763.22;5121569;28;20048;-62
2023/03/13 05:51:49;;;;;;;3.30;1.60;;;;;;;10.66;72.81;99751.09;5115783;28;20071;-62
2023/03/13 05:54:17;;;;;;;4.78;2.17;;;;;;;10.67;72.90;99765.34;5122256;28;20048;-62
2023/03/13 05:56:47;;;;;;;1.88;1.33;;;;;;;10.66;72.87;99761.84;5123885;28;20075;-62
2023/03/13 05:59:15;;;;;;;6.18;1.85;;;;;;;10.67;72.83;99752.72;5118018;28;20120;-62
2023/03/13 06:01:43;;;;;;;7.55;2.00;;;;;;;10.67;72.97;99752.72;5121189;28;20051;-63
2023/03/13 06:04:10;;;;;;;4.35;1.60;;;;;;;10.70;73.18;99762.16;5120804;28;20447;-62
2023/03/13 06:06:38;;;;;;;3.70;1.58;;;;;;;10.73;72.63;99761.66;5120379;28;20044;-63
2023/03/13 06:09:09;;;;;;;4.22;1.85;;;;;;;10.74;72.86;99758.72;5114597;28;20043;-63
2023/03/13 06:11:38;;;;;;;2.65;1.70;;;;;;;10.74;72.69;99772.16;5117091;28;20048;-62
2023/03/13 06:14:05;;;;;;;6.20;1.73;;;;;;;10.76;72.70;99771.91;5121571;28;20043;-63
2023/03/13 06:16:33;;;;;;;3.42;1.77;;;;;;;10.76;72.91;99767.34;5125647;28;20048;-64
2023/03/13 06:19:01;;;;;;;4.72;1.88;;;;;;;10.81;72.62;99752.34;5107350;28;20107;-64
2023/03/13 06:21:29;;;;;;;6.65;1.90;;;;;;;10.92;72.41;99757.59;5123325;28;20388;-62
2023/03/13 06:23:58;;;;;;;7.10;1.90;;;;;;;10.88;72.09;99744.91;5121864;28;20056;-63
2023/03/13 06:26:27;;;;;;;3.75;2.28;;;;;;;10.85;72.46;99740.03;5119373;28;20052;-63
2023/03/13 06:28:55;;;;;;;9.63;2.50;;;;;;;10.89;72.35;99746.53;5115789;28;20067;-63
2023/03/13 06:31:23;;;;;;;5.47;1.95;;;;;;;10.86;72.72;99742.47;5118369;28;20039;-66
2023/03/13 06:33:53;;;;;;;4.72;1.50;;;;;;;11.01;72.30;99731.09;5112247;28;20048;-64
2023/03/13 06:36:21;;;;;;;5.38;2.22;;;;;;;10.92;72.25;99724.53;5117279;28;20051;-63
2023/03/13 06:38:49;;;;;;;4.95;1.67;;;;;;;11.01;72.52;99742.66;5116833;28;20112;-62
2023/03/13 06:41:17;;;;;;;7.72;2.13;;;;;;;11.11;71.91;99735.78;5122915;28;20093;-61
2023/03/13 06:43:46;;;;;;;9.50;1.98;;;;;;;11.03;71.81;99737.84;5122273;28;20063;-65
2023/03/13 06:46:18;;;;;;;6.55;1.88;;;;;;;10.97;72.14;99738.84;5119931;28;20083;-64
2023/03/13 06:48:46;;;;;;;7.28;1.95;;;;;;;10.92;72.03;99737.97;5124914;28;20096;-62
2023/03/13 06:51:16;;;;;;;6.80;2.20;;;;;;;10.95;72.25;99735.59;5125205;28;20079;-64
2023/03/13 06:53:44;;;;;;;6.20;2.08;;;;;;;10.93;72.06;99745.78;5123591;28;20043;-62
2023/03/13 06:56:12;;;;;;;3.77;1.77;;;;;;;10.94;72.09;99747.41;4392766;27;10001043;-63
2023/03/13 06:58:40;;;;;;;7.55;1.85;;;;;;;10.88;72.22;99745.72;5086747;28;20397;-64
2023/03/13 07:01:11;;;;;;;7.32;1.90;;;;;;;10.98;72.33;99743.16;5086856;28;20045;-65
2023/03/13 07:03:40;;;;;;;5.00;1.60;;;;;;;11.13;72.26;99739.84;5089116;28;20052;-63
2023/03/13 07:06:10;;;;;;;6.75;1.90;;;;;;;11.11;71.95;99727.69;5100628;27;20055;-63
2023/03/13 07:08:38;;;;;;;5.00;1.75;;;;;;;11.16;71.56;99730.44;5083929;28;20170;-63
2023/03/13 07:11:08;;;;;;;4.85;2.00;;;;;;;11.17;71.74;99748.19;5090867;28;20072;-62
2023/03/13 07:13:36;;;;;;;6.10;2.10;;;;;;;11.11;71.83;99733.09;5094525;28;20051;-62
2023/03/13 07:16:05;;;;;;;5.13;2.65;;;;;;;11.09;71.80;99738.72;5091540;28;20053;-68
2023/03/13 07:18:35;;;;;;;3.70;1.95;;;;;;;11.13;72.63;99733.63;5089541;28;20546;-64
2023/03/13 07:21:04;;;;;;;8.07;2.58;;;;;;;11.07;72.06;99730.09;5096133;28;20051;-62
2023/03/13 07:23:34;;;;;;;6.72;2.03;;;;;;;11.09;72.43;99726.06;5084926;28;20102;-63
2023/03/13 07:26:04;;;;;;;6.07;2.20;;;;;;;11.20;71.85;99724.31;5085586;28;20103;-63
2023/03/13 07:28:33;;;;;;;7.00;2.55;;;;;;;11.10;72.31;99729.56;5102659;28;20058;-62
2023/03/13 07:31:05;;;;;;;8.60;2.50;;;;;;;11.11;72.21;99730.38;5109727;28;20080;-62
2023/03/13 07:33:34;;;;;;;7.28;2.58;;;;;;;11.10;72.00;99737.66;5117909;28;20112;-61
2023/03/13 07:36:03;;;;;;;8.05;2.00;;;;;;;11.06;72.09;99731.97;5119926;28;20111;-63
2023/03/13 07:38:31;;;;;;;10.00;2.20;;;;;;;11.16;72.58;99722.38;5108119;28;20054;-63
2023/03/13 07:40:58;;;;;;;7.22;2.00;;;;;;;11.16;71.93;99733.94;5107802;27;20047;-63
2023/03/13 07:43:28;;;;;;;7.32;2.00;;;;;;;11.27;71.66;99732.19;5115946;28;20135;-63
2023/03/13 07:45:57;;;;;;;5.13;2.15;;;;;;;11.17;72.33;99735.56;5114388;28;20093;-63
2023/03/13 07:48:28;;;;;;;13.10;3.42;;;;;;;11.15;72.57;99743.09;5100925;28;20055;-62
2023/03/13 07:50:59;;;;;;;13.40;2.72;;;;;;;11.16;72.51;99742.00;5113359;27;20063;-63
2023/03/13 07:53:27;;;;;;;7.68;2.45;;;;;;;11.21;72.56;99735.88;5116818;27;20071;-63
2023/03/13 07:55:57;;;;;;;10.40;2.78;;;;;;;11.19;72.68;99727.25;5116234;27;20097;-62
2023/03/13 07:58:27;;;;;;;8.77;2.83;;;;;;;11.23;72.63;99720.31;5117499;28;20075;-62
2023/03/13 08:00:55;;;;;;;12.63;3.65;;;;;;;11.22;73.54;99734.81;5109370;28;20055;-63
2023/03/13 08:03:23;;;;;;;9.65;3.28;;;;;;;11.21;74.17;99734.00;5114429;28;20074;-62
2023/03/13 08:05:59;;;;;;;11.95;2.72;;;;;;;11.23;74.48;99728.38;5114705;28;20044;-63
2023/03/13 08:08:27;;;;;;;10.52;2.55;;;;;;;11.24;74.93;99730.00;5120328;28;20308;-63
2023/03/13 08:11:00;;;;;;;11.75;3.20;;;;;;;11.27;75.07;99722.22;5119980;28;20333;-63
2023/03/13 08:13:28;;;;;;;10.25;3.45;;;;;;;11.29;75.27;99714.72;5105192;28;20070;-63
2023/03/13 08:16:02;;;;;;;7.72;2.75;;;;;;;11.34;75.28;99716.66;5107909;28;20055;-63
2023/03/13 08:18:33;;;;;;;9.35;2.67;;;;;;;11.35;75.25;99713.69;5106342;28;20075;-63
2023/03/13 08:21:04;;;;;;;10.70;2.53;;;;;;;11.38;75.53;99707.00;5119399;28;20043;-63
2023/03/13 08:23:33;;;;;;;9.00;3.00;;;;;;;11.37;75.33;99695.44;5110879;28;20071;-63
2023/03/13 08:26:05;;;;;;;9.45;2.92;;;;;;;11.41;75.45;99698.41;5119612;28;20086;-61
2023/03/13 08:28:33;;;;;;;8.82;2.75;;;;;;;11.56;75.47;99690.47;5109683;28;20485;-61
2023/03/13 08:31:07;;;;;;;10.02;2.50;;;;;;;11.55;75.25;99690.75;5120233;28;20062;-61
2023/03/13 08:33:35;;;;;;;5.78;1.90;;;;;;;11.62;75.17;99689.47;5107794;28;20050;-60
2023/03/13 08:36:11;;;;;;;6.88;2.30;;;;;;;11.57;75.14;99699.38;5117939;28;20048;-61
2023/03/13 08:38:40;;;;;;;6.55;2.22;;;;;;;11.54;75.50;99705.25;5106544;28;20055;-61
2023/03/13 08:41:09;;;;;;;10.23;2.20;;;;;;;11.71;74.98;99706.75;5115412;28;20075;-60
2023/03/13 08:43:36;;;;;;;8.55;1.95;;;;;;;11.86;74.07;99702.59;5117836;28;20548;-62
2023/03/13 08:46:04;;;;;;;7.55;2.17;;;;;;;12.09;73.10;99701.41;5119326;28;20100;-62
2023/03/13 08:48:32;;;;;;;11.10;2.00;;;;;;;12.01;72.88;99710.78;5109773;28;20054;-62
2023/03/13 08:51:02;;;;;;;9.35;2.25;;;;;;;12.03;72.54;99690.59;5111206;28;20103;-61
2023/03/13 08:53:32;;;;;;;9.07;3.00;;;;;;;11.91;73.24;99689.97;5116075;28;20051;-60
2023/03/13 08:56:00;;;;;;;10.93;2.78;;;;;;;11.77;73.36;99693.34;5110744;28;20247;-61
2023/03/13 08:58:28;;;;;;;9.02;3.20;;;;;;;11.73;73.63;99707.31;5117014;28;20078;-61
2023/03/13 09:01:02;;;;;;;7.57;2.15;;;;;;;11.70;73.89;99696.25;5114662;28;20040;-61
2023/03/13 09:03:30;;;;;;;6.78;2.55;;;;;;;11.83;73.31;99690.47;5105537;28;20082;-61
2023/03/13 09:05:58;;;;;;;6.10;2.45;;;;;;;11.81;73.51;99691.78;5111730;28;20127;-61
2023/03/13 09:08:27;;;;;;;4.93;2.35;;;;;;;11.89;72.88;99677.84;5120852;28;20043;-61
2023/03/13 09:10:57;;;;;;;4.07;1.70;;;;;;;11.80;73.29;99674.81;5122749;28;20051;-60
2023/03/13 09:13:24;;;;;;;4.72;1.85;;;;;;;11.78;73.23;99682.34;5123073;28;20078;-60
2023/03/13 09:15:56;;;;;;;6.40;2.00;;;;;;;11.72;73.73;99680.66;5116020;28;20052;-60
2023/03/13 09:18:24;;;;;;;5.75;1.90;;;;;;;11.69;74.05;99683.84;5122497;28;20043;-60
2023/03/13 09:20:52;;;;;;;5.38;2.22;;;;;;;11.69;73.51;99689.25;5111260;28;20059;-59
2023/03/13 09:23:21;;;;;;;6.55;2.25;;;;;;;11.76;73.34;99665.59;5109033;28;20048;-60
2023/03/13 09:25:49;;;;;;;8.93;2.63;;;;;;;11.74;73.20;99673.13;5123046;28;20048;-60
2023/03/13 09:28:18;;;;;;;6.97;2.00;;;;;;;11.74;73.42;99676.63;5103263;28;20058;-60
2023/03/13 09:30:48;;;;;;;7.40;2.17;;;;;;;11.84;72.92;99661.66;5116219;28;20044;-61
2023/03/13 09:33:16;;;;;;;6.05;2.03;;;;;;;11.84;72.96;99657.09;5121113;28;20056;-61
2023/03/13 09:35:49;;;;;;;4.68;1.70;;;;;;;11.83;72.92;99650.06;5119007;28;20572;-61
2023/03/13 09:38:17;;;;;;;4.03;1.63;;;;;;;11.88;72.68;99646.59;5123222;28;20138;-61
2023/03/13 09:40:47;;;;;;;6.20;2.30;;;;;;;11.81;73.12;99638.75;5114421;28;20050;-61
2023/03/13 09:43:40;;;;;;;6.90;2.53;;;;;;;11.99;72.61;99621.38;5107287;28;20051;-61
2023/03/13 09:46:13;;;;;;;5.22;2.22;;;;;;;11.90;72.83;99612.97;5116668;28;20478;-60
2023/03/13 09:48:44;;;;;;;5.22;1.95;;;;;;;12.09;72.38;99634.06;5112588;28;20075;-61
2023/03/13 09:51:18;;;;;;;4.90;1.60;;;;;;;12.48;71.26;99615.63;5115778;28;20054;-60
2023/03/13 09:53:51;;;;;;;7.93;1.75;;;;;;;12.44;70.98;99623.44;5109052;28;20111;-61
2023/03/13 09:56:23;;;;;;;3.83;1.73;;;;;;;12.37;71.53;99612.09;5122026;28;20050;-61
2023/03/13 09:58:57;;;;;;;3.83;1.80;;;;;;;12.38;71.42;99616.41;5123009;28;20067;-61
2023/03/13 10:01:30;;;;;;;4.55;2.20;;;;;;;12.32;71.21;99625.53;5111805;28;20106;-61
2023/03/13 10:04:21;;;;;;;3.17;1.55;;;;;;;12.34;71.37;99604.53;5117488;28;20150;-60
2023/03/13 10:06:50;;;;;;;5.57;1.77;;;;;;;12.27;71.87;99604.78;5123108;28;20058;-61
2023/03/13 10:09:20;;;;;;;6.70;1.90;;;;;;;12.51;70.75;99593.53;5109170;28;20535;-61
2023/03/13 10:11:57;;;;;;;5.10;1.70;;;;;;;12.46;71.40;99601.59;5122645;28;20043;-61
2023/03/13 10:14:30;;;;;;;2.90;1.50;;;;;;;12.42;71.36;99604.03;5114901;28;20516;-61
2023/03/13 10:17:06;;;;;;;5.15;1.70;;;;;;;12.41;71.36;99605.09;5116250;28;20057;-61
2023/03/13 10:19:37;;;;;;;3.23;1.83;;;;;;;12.40;71.40;99614.25;5125680;28;20067;-61
2023/03/13 10:22:13;;;;;;;7.45;1.90;;;;;;;12.42;71.82;99597.81;5124341;27;20051;-61
2023/03/13 10:24:46;;;;;;;6.53;1.63;;;;;;;12.52;71.37;99592.47;5126580;28;20131;-61
2023/03/13 10:27:15;;;;;;;4.57;1.40;;;;;;;12.37;71.77;99594.03;5125305;28;20075;-61
2023/03/13 10:29:44;;;;;;;7.43;2.10;;;;;;;12.50;71.55;99598.13;5111537;28;20070;-61
2023/03/13 10:32:14;;;;;;;4.72;1.50;;;;;;;12.35;71.80;99584.59;5105210;28;20131;-61
2023/03/13 10:34:49;;;;;;;2.05;1.35;;;;;;;12.36;71.91;99586.22;5123817;28;20055;-61
2023/03/13 10:37:21;;;;;;;3.80;1.35;;;;;;;12.44;71.61;99574.94;5122107;28;20047;-62
2023/03/13 10:39:49;;;;;;;2.95;1.42;;;;;;;12.48;71.65;99578.72;5123601;28;20040;-59
2023/03/13 10:42:27;;;;;;;3.70;1.33;;;;;;;12.48;71.57;99575.22;5117538;28;20044;-60
2023/03/13 10:45:01;;;;;;;5.90;1.60;;;;;;;12.62;71.11;99569.03;5108467;28;20079;-60
2023/03/13 10:47:33;;;;;;;3.42;1.90;;;;;;;12.91;70.60;99580.16;5115600;27;20064;-59
2023/03/13 10:50:04;;;;;;;6.60;2.08;;;;;;;13.16;69.56;99559.66;5120519;27;20470;-59
2023/03/13 10:52:43;;;;;;;4.97;1.30;;;;;;;13.47;68.39;99555.09;5120203;28;20047;-58
2023/03/13 10:55:13;;;;;;;4.68;1.60;;;;;;;13.56;68.34;99550.75;5116992;28;20044;-60
2023/03/13 10:57:43;;;;;;;3.97;1.35;;;;;;;13.73;67.44;99545.03;5118750;28;20048;-60
2023/03/13 11:00:33;;;;;;;3.92;1.70;;;;;;;13.87;66.91;99546.06;5121588;27;20058;-60
2023/03/13 11:03:02;;;;;;;2.90;1.25;;;;;;;14.02;66.35;99554.09;5122729;28;20079;-60
2023/03/13 11:05:36;;;;;;;3.35;1.63;;;;;;;14.25;65.84;99556.16;5111319;28;20123;-58
2023/03/13 11:08:18;;;;;;;4.22;0.93;;;;;;;14.32;65.93;99555.88;5124697;28;20048;-58
2023/03/13 11:10:58;;;;;;;3.90;1.75;;;;;;;14.40;65.21;99543.66;5118242;28;20048;-59
2023/03/13 11:13:33;;;;;;;2.17;1.17;;;;;;;14.42;65.28;99552.31;5118051;28;20051;-59
2023/03/13 11:16:17;;;;;;;3.90;1.00;;;;;;;14.46;65.09;99537.16;5123234;27;20065;-59
2023/03/13 11:19:01;;;;;;;4.72;1.40;;;;;;;14.25;65.61;99541.84;5121633;28;20530;-59
2023/03/13 11:21:39;;;;;;;4.78;1.40;;;;;;;14.02;66.27;99546.00;5119426;28;20050;-62
2023/03/13 11:24:15;;;;;;;8.70;1.50;;;;;;;13.94;66.24;99552.78;5119066;27;20075;-62
2023/03/13 11:26:55;;;;;;;5.13;1.45;;;;;;;13.72;67.22;99543.44;5120732;28;20097;-58
2023/03/13 11:29:43;;;;;;;2.78;1.40;;;;;;;13.51;66.99;99537.25;5125911;27;20417;-58
2023/03/13 11:32:22;;;;;;;2.85;1.20;;;;;;;13.43;67.56;99540.50;5116130;27;20050;-59
2023/03/13 11:34:54;;;;;;;4.55;1.30;;;;;;;13.49;67.29;99531.31;5119768;27;20044;-59
2023/03/13 11:37:24;;;;;;;1.77;1.17;;;;;;;13.53;67.36;99535.91;5122561;27;20093;-59
2023/03/13 11:40:04;;;;;;;3.22;1.30;;;;;;;13.39;67.71;99521.34;5124546;27;20362;-60
2023/03/13 11:43:08;;;;;;;4.60;1.50;;;;;;;13.31;68.08;99522.72;5115809;27;20043;-60